createdAt,value
2023-02-22T00:00:43.266Z,7.05
2023-02-22T00:05:35.317Z,8.05
2023-02-22T00:10:27.570Z,7.90
2023-02-22T00:15:21.842Z,7.95
2023-02-22T00:20:15.462Z,8.07
2023-02-22T00:25:08.289Z,7.72
2023-02-22T00:30:00.131Z,7.32
2023-02-22T00:34:53.828Z,7.87
2023-02-22T00:39:48.399Z,7.53
2023-02-22T00:44:40.560Z,8.45
2023-02-22T00:49:32.359Z,7.83
2023-02-22T00:54:24.197Z,7.77
2023-02-22T00:59:16.426Z,8.50
2023-02-22T01:04:08.328Z,7.97
2023-02-22T01:09:02.556Z,8.00
2023-02-22T01:13:55.601Z,7.93
2023-02-22T01:18:47.922Z,7.80
2023-02-22T01:23:40.802Z,8.35
2023-02-22T01:28:33.716Z,7.73
2023-02-22T01:33:27.489Z,7.78
2023-02-22T01:38:19.374Z,8.13
2023-02-22T01:43:21.996Z,7.47
2023-02-22T01:48:23.060Z,8.23
2023-02-22T01:53:20.104Z,7.87
2023-02-22T01:58:12.731Z,8.20
2023-02-22T02:08:03.178Z,8.52
2023-02-22T02:12:55.485Z,7.40
2023-02-22T02:17:48.784Z,7.50
2023-02-22T02:23:06.334Z,8.43
2023-02-22T02:28:07.275Z,7.72
2023-02-22T02:33:20.900Z,8.60
2023-02-22T02:38:18.891Z,8.10
2023-02-22T02:43:30.007Z,8.00
2023-02-22T02:48:25.888Z,7.90
2023-02-22T02:53:30.036Z,8.63
2023-02-22T02:58:23.854Z,8.48
2023-02-22T03:03:42.912Z,8.95
2023-02-22T03:09:00.131Z,8.25
2023-02-22T03:14:18.168Z,7.68
2023-02-22T03:19:22.893Z,8.80
2023-02-22T03:24:19.236Z,8.88
2023-02-22T03:29:12.642Z,8.98
2023-02-22T03:34:11.050Z,8.23
2023-02-22T03:39:04.389Z,8.90
2023-02-22T03:44:05.503Z,8.32
2023-02-22T03:49:03.934Z,8.32
2023-02-22T03:58:58.551Z,8.63
2023-02-22T04:03:50.571Z,8.63
2023-02-22T04:08:44.230Z,8.45
2023-02-22T04:13:36.398Z,9.05
2023-02-22T04:18:28.301Z,8.60
2023-02-22T04:23:20.961Z,8.68
2023-02-22T04:28:14.383Z,9.35
2023-02-22T04:33:16.287Z,9.05
2023-02-22T04:38:09.722Z,8.63
2023-02-22T04:43:04.074Z,8.35
2023-02-22T04:47:56.249Z,8.27
2023-02-22T04:52:48.386Z,9.15
2023-02-22T04:57:41.237Z,8.95
2023-02-22T05:02:33.186Z,8.47
2023-02-22T05:07:25.011Z,8.23
2023-02-22T05:12:16.895Z,9.15
2023-02-22T05:17:08.753Z,9.73
2023-02-22T05:22:00.616Z,8.97
2023-02-22T05:26:53.413Z,8.80
2023-02-22T05:31:45.445Z,8.90
2023-02-22T05:36:37.465Z,8.90
2023-02-22T05:41:29.372Z,8.73
2023-02-22T05:46:21.328Z,8.87
2023-02-22T05:51:13.573Z,8.50
2023-02-22T05:56:06.144Z,8.60
2023-02-22T06:00:58.037Z,8.68
2023-02-22T06:05:49.926Z,9.70
2023-02-22T06:10:41.808Z,9.33
2023-02-22T06:15:33.717Z,9.07
2023-02-22T06:20:27.166Z,9.10
2023-02-22T06:25:22.593Z,8.85
2023-02-22T06:30:15.959Z,9.27
2023-02-22T06:35:08.524Z,9.20
2023-02-22T06:40:04.851Z,9.32
2023-02-22T06:44:57.209Z,9.10
2023-02-22T06:49:56.356Z,9.37
2023-02-22T06:54:48.720Z,9.27
2023-02-22T06:59:40.795Z,9.18
2023-02-22T07:04:32.638Z,9.60
2023-02-22T07:09:24.510Z,8.93
2023-02-22T07:14:19.729Z,8.87
2023-02-22T07:19:11.531Z,9.07
2023-02-22T07:24:05.400Z,8.53
2023-02-22T07:28:57.499Z,8.70
2023-02-22T07:33:49.666Z,8.87
2023-02-22T07:38:41.577Z,9.30
2023-02-22T07:43:33.426Z,9.07
2023-02-22T07:48:27.394Z,8.57
2023-02-22T07:53:23.369Z,9.18
2023-02-22T07:58:15.682Z,9.05
2023-02-22T08:03:13.288Z,8.73
2023-02-22T08:08:06.326Z,9.10
2023-02-22T08:12:58.730Z,8.48
2023-02-22T08:17:51.459Z,9.05
2023-02-22T08:27:35.903Z,9.43
2023-02-22T08:32:28.073Z,8.43
2023-02-22T08:37:19.962Z,8.88
2023-02-22T08:42:11.958Z,9.10
2023-02-22T08:47:04.037Z,8.93
2023-02-22T08:51:56.028Z,8.40
2023-02-22T08:56:47.851Z,8.80
2023-02-22T09:01:39.885Z,9.27
2023-02-22T09:06:31.868Z,8.82
2023-02-22T09:11:23.763Z,8.37
2023-02-22T09:16:15.803Z,8.30
2023-02-22T09:21:07.692Z,9.27
2023-02-22T09:26:00.245Z,8.53
2023-02-22T09:30:52.338Z,8.73
2023-02-22T09:35:50.124Z,8.67
2023-02-22T09:40:47.226Z,8.88
2023-02-22T09:46:05.439Z,9.13
2023-02-22T09:50:59.826Z,8.70
2023-02-22T09:55:52.964Z,8.65
2023-02-22T10:00:47.386Z,8.43
2023-02-22T10:05:46.586Z,8.27
2023-02-22T10:10:40.340Z,9.00
2023-02-22T10:15:37.470Z,9.20
2023-02-22T10:20:47.586Z,9.15
2023-02-22T10:25:40.014Z,8.90
2023-02-22T10:30:40.009Z,9.18
2023-02-22T10:35:36.811Z,9.55
2023-02-22T10:40:35.014Z,9.80
2023-02-22T10:45:30.112Z,8.57
2023-02-22T10:50:22.591Z,9.00
2023-02-22T10:55:16.257Z,8.95
2023-02-22T11:00:37.400Z,8.82
2023-02-22T11:05:38.592Z,9.50
2023-02-22T11:10:38.816Z,9.55
2023-02-22T11:15:31.643Z,9.35
2023-02-22T11:20:27.501Z,9.90
2023-02-22T11:25:22.325Z,9.85
2023-02-22T11:30:26.832Z,8.88
2023-02-22T11:35:20.924Z,10.00
2023-02-22T11:40:22.218Z,10.40
2023-02-22T11:45:17.202Z,9.30
2023-02-22T11:50:19.328Z,9.80
2023-02-22T11:55:43.052Z,10.27
2023-02-22T12:01:07.134Z,9.75
2023-02-22T12:06:14.726Z,10.07
2023-02-22T12:11:31.683Z,9.70
2023-02-22T12:16:56.094Z,9.48
2023-02-22T12:21:57.303Z,9.73
2023-02-22T12:26:59.700Z,10.68
2023-02-22T12:31:57.678Z,10.27
2023-02-22T12:37:01.823Z,9.65
2023-02-22T12:41:56.439Z,9.98
2023-02-22T12:46:51.019Z,9.55
2023-02-22T12:51:50.196Z,9.45
2023-02-22T12:57:12.348Z,9.95
2023-02-22T13:02:23.101Z,9.95
2023-02-22T13:07:43.104Z,9.45
2023-02-22T13:13:04.073Z,9.43
2023-02-22T13:18:21.556Z,10.82
2023-02-22T13:23:31.068Z,9.80
2023-02-22T13:28:30.230Z,10.00
2023-02-22T13:33:34.387Z,9.88
2023-02-22T13:38:49.463Z,10.73
2023-02-22T13:44:23.052Z,10.25
2023-02-22T13:49:50.331Z,10.10
2023-02-22T13:54:46.399Z,11.02
2023-02-22T13:59:40.344Z,10.15
2023-02-22T14:04:34.589Z,10.05
2023-02-22T14:09:48.833Z,10.77
2023-02-22T14:15:18.710Z,10.70
2023-02-22T14:20:31.281Z,10.77
2023-02-22T14:25:49.524Z,10.27
2023-02-22T14:30:41.624Z,10.40
2023-02-22T14:35:49.413Z,10.00
2023-02-22T14:40:43.218Z,10.43
2023-02-22T14:45:40.054Z,10.63
2023-02-22T14:50:57.560Z,11.15
2023-02-22T14:56:07.841Z,10.85
2023-02-22T15:01:00.103Z,10.57
2023-02-22T15:05:52.146Z,11.02
2023-02-22T15:10:49.101Z,10.10
2023-02-22T15:15:49.952Z,11.35
2023-02-22T15:20:41.804Z,11.18
2023-02-22T15:25:34.865Z,10.90
2023-02-22T15:30:29.295Z,10.70
2023-02-22T15:35:28.600Z,10.35
2023-02-22T15:40:21.153Z,10.57
2023-02-22T15:45:20.784Z,10.52
2023-02-22T15:50:30.329Z,10.38
2023-02-22T15:55:25.868Z,11.07
2023-02-22T16:00:33.508Z,10.70
2023-02-22T16:05:35.165Z,10.95
2023-02-22T16:10:33.494Z,10.70
2023-02-22T16:15:25.403Z,10.35
2023-02-22T16:20:20.568Z,11.17
2023-02-22T16:25:18.225Z,10.68
2023-02-22T16:30:25.771Z,10.52
2023-02-22T16:35:20.858Z,11.30
2023-02-22T16:40:40.424Z,10.88
2023-02-22T16:45:32.575Z,10.88
2023-02-22T16:50:24.448Z,10.57
2023-02-22T16:55:19.107Z,10.55
2023-02-22T17:00:17.696Z,9.77
2023-02-22T17:05:13.960Z,10.43
2023-02-22T17:10:06.460Z,10.02
2023-02-22T17:14:58.523Z,11.45
2023-02-22T17:19:50.667Z,10.87
2023-02-22T17:24:42.525Z,11.38
2023-02-22T17:29:34.340Z,11.65
2023-02-22T17:34:26.215Z,11.38
2023-02-22T17:39:18.145Z,11.15
2023-02-22T17:44:10.008Z,10.20
2023-02-22T17:49:03.443Z,11.40
2023-02-22T17:53:55.317Z,10.38
2023-02-22T17:58:53.339Z,10.88
2023-02-22T18:03:45.238Z,11.68
2023-02-22T18:08:39.088Z,12.00
2023-02-22T18:13:30.898Z,11.25
2023-02-22T18:18:23.230Z,10.65
2023-02-22T18:23:17.229Z,11.15
2023-02-22T18:28:09.703Z,11.43
2023-02-22T18:33:01.914Z,12.13
2023-02-22T18:37:53.737Z,11.52
2023-02-22T18:42:46.869Z,11.50
2023-02-22T18:47:40.917Z,11.77
2023-02-22T18:52:35.469Z,11.32
2023-02-22T18:57:27.313Z,11.40
2023-02-22T19:02:20.756Z,12.00
2023-02-22T19:07:18.434Z,12.05
2023-02-22T19:12:10.265Z,11.95
2023-02-22T19:17:03.203Z,11.90
2023-02-22T19:21:56.408Z,11.63
2023-02-22T19:26:53.784Z,12.02
2023-02-22T19:31:47.710Z,12.05
2023-02-22T19:36:42.990Z,11.63
2023-02-22T19:41:34.845Z,11.80
2023-02-22T19:46:26.782Z,11.57
2023-02-22T19:51:20.527Z,11.00
2023-02-22T19:56:17.931Z,12.48
2023-02-22T20:01:23.429Z,11.95
2023-02-22T20:06:16.841Z,11.40
2023-02-22T20:11:10.576Z,12.65
2023-02-22T20:16:02.712Z,12.43
2023-02-22T20:20:54.858Z,12.17
2023-02-22T20:25:56.544Z,12.87
2023-02-22T20:30:48.840Z,12.00
2023-02-22T20:35:40.899Z,12.30
2023-02-22T20:40:32.862Z,12.23
2023-02-22T20:45:25.275Z,13.73
2023-02-22T20:50:17.543Z,12.48
2023-02-22T20:55:11.625Z,12.60
2023-02-22T21:00:05.255Z,12.45
2023-02-22T21:04:57.091Z,11.82
2023-02-22T21:09:49.961Z,11.43
2023-02-22T21:19:37.051Z,12.30
2023-02-22T21:24:29.552Z,11.85
2023-02-22T21:29:21.786Z,12.85
2023-02-22T21:34:17.678Z,12.27
2023-02-22T21:39:18.299Z,11.98
2023-02-22T21:44:10.754Z,12.32
2023-02-22T21:49:02.892Z,12.00
2023-02-22T21:53:55.054Z,11.67
2023-02-22T21:58:48.168Z,12.20
2023-02-22T22:03:40.205Z,11.82
2023-02-22T22:08:32.175Z,12.93
2023-02-22T22:13:28.641Z,12.10
2023-02-22T22:18:20.498Z,12.55
2023-02-22T22:23:12.744Z,11.70
2023-02-22T22:28:08.428Z,11.93
2023-02-22T22:33:00.460Z,12.80
2023-02-22T22:37:52.314Z,11.93
2023-02-22T22:42:45.856Z,11.33
2023-02-22T22:47:38.895Z,12.30
2023-02-22T22:52:35.107Z,11.88
2023-02-22T22:57:27.434Z,11.93
2023-02-22T23:02:20.505Z,12.18
2023-02-22T23:07:13.520Z,12.00
2023-02-22T23:12:09.230Z,11.57
2023-02-22T23:17:04.476Z,11.55
2023-02-22T23:21:59.216Z,11.85
2023-02-22T23:26:51.031Z,11.38
2023-02-22T23:31:42.972Z,12.07
2023-02-22T23:36:34.844Z,11.30
2023-02-22T23:41:28.704Z,11.05
2023-02-22T23:46:20.523Z,12.23
2023-02-22T23:51:14.495Z,10.70
2023-02-22T23:56:10.078Z,12.55
